Time;durP1;ratioP1;P1;durP2;ratioP2;P2;SDS_P1;SDS_P2;PMS_P1;PMS_P2;Temp;Humidity;BMP_temperature;BMP_pressure;BME280_temperature;BME280_humidity;BME280_pressure;Samples;Min_cycle;Max_cycle;Signal;HPM_P1;HPM_P2
2023/05/29 00:01:25;;;;;;;;;;;;;;;28.72;32.28;96231.09;4992158;28;19960;-48
2023/05/29 00:03:53;;;;;;;;;;;;;;;28.46;32.67;96232.88;4995986;28;20397;-52
2023/05/29 00:06:21;;;;;;;;;;;;;;;28.61;32.64;96230.22;4993348;28;19964;-51
2023/05/29 00:08:49;;;;;;;;;;;;;;;28.62;32.28;96229.97;4992563;28;19968;-49
2023/05/29 00:11:17;;;;;;;;;;;;;;;28.61;32.47;96230.22;4994201;28;19984;-48
2023/05/29 00:13:45;;;;;;;;;;;;;;;28.50;32.73;96234.81;4997338;28;20364;-53
2023/05/29 00:16:13;;;;;;;;;;;;;;;28.59;32.73;96235.91;4992098;28;20397;-49
2023/05/29 00:18:45;;;;;;;;;;;;;;;28.52;32.89;96229.91;4996305;28;19973;-51
2023/05/29 00:21:13;;;;;;;;;;;;;;;28.59;32.92;96232.38;4999051;28;19961;-51
2023/05/29 00:23:42;;;;;;;;;;;;;;;28.26;33.42;96233.56;4988691;28;19961;-50
2023/05/29 00:26:13;;;;;;;;;;;;;;;27.92;33.54;96237.41;4990631;28;19965;-50
2023/05/29 00:28:41;;;;;;;;;;;;;;;27.63;33.61;96239.59;4988857;28;19977;-53
2023/05/29 00:31:11;;;;;;;;;;;;;;;27.65;34.03;96233.91;4993150;28;19972;-52
2023/05/29 00:33:40;;;;;;;;;;;;;;;27.87;33.42;96240.09;4994661;28;20007;-52
2023/05/29 00:36:10;;;;;;;;;;;;;;;28.08;33.16;96234.78;4990437;28;20389;-50
2023/05/29 00:38:38;;;;;;;;;;;;;;;28.23;33.09;96243.03;4993024;28;20566;-48
2023/05/29 00:41:06;;;;;;;;;;;;;;;28.29;32.89;96236.56;4996606;28;20392;-49
2023/05/29 00:43:34;;;;;;;;;;;;;;;28.22;33.15;96235.13;4987256;28;20457;-49
2023/05/29 00:46:02;;;;;;;;;;;;;;;28.08;33.42;96230.22;4986237;28;20016;-48
2023/05/29 00:48:30;;;;;;;;;;;;;;;28.19;33.36;96239.22;5002075;28;20421;-50
2023/05/29 00:50:59;;;;;;;;;;;;;;;28.05;33.43;96230.72;4989189;28;19965;-52
2023/05/29 00:53:29;;;;;;;;;;;;;;;28.08;33.16;96234.78;4993342;28;19965;-50
2023/05/29 00:55:57;;;;;;;;;;;;;;;28.09;32.93;96233.72;4994166;28;19964;-48
2023/05/29 00:58:25;;;;;;;;;;;;;;;28.13;33.00;96230.22;4989118;28;19964;-50
2023/05/29 01:00:53;;;;;;;;;;;;;;;28.06;32.91;96232.34;4989606;28;19960;-49
2023/05/29 01:03:22;;;;;;;;;;;;;;;28.03;33.18;96232.88;4990986;28;20385;-47
2023/05/29 01:05:52;;;;;;;;;;;;;;;27.86;33.15;96234.91;4990178;28;19965;-48
2023/05/29 01:08:20;;;;;;;;;;;;;;;27.85;33.49;96236.00;4992696;28;19961;-49
2023/05/29 01:10:50;;;;;;;;;;;;;;;27.41;33.90;96239.66;4988976;28;19972;-48
2023/05/29 01:13:19;;;;;;;;;;;;;;;27.19;34.35;96239.75;4991210;28;19963;-54
2023/05/29 01:15:47;;;;;;;;;;;;;;;27.12;34.70;96236.41;5001663;28;19991;-48
2023/05/29 01:18:20;;;;;;;;;;;;;;;27.38;34.18;96242.06;4990708;28;19957;-52
2023/05/29 01:20:50;;;;;;;;;;;;;;;27.52;34.32;96231.63;4993803;28;19976;-47
2023/05/29 01:23:43;;;;;;;;;;;;;;;27.63;33.84;96233.34;4993006;28;19968;-50
2023/05/29 01:26:22;;;;;;;;;;;;;;;27.68;33.97;96233.41;4972992;28;19957;-48
2023/05/29 01:28:52;;;;;;;;;;;;;;;27.56;33.79;96228.13;4991744;28;19965;-49
2023/05/29 01:31:21;;;;;;;;;;;;;;;27.12;34.36;96235.56;4992391;28;19972;-49
2023/05/29 01:33:52;;;;;;;;;;;;;;;26.99;34.43;96234.06;4992867;28;19985;-49
2023/05/29 01:36:20;;;;;;;;;;;;;;;27.23;33.94;96239.22;4991418;28;19961;-47
2023/05/29 01:38:48;;;;;;;;;;;;;;;27.27;34.16;96241.16;4990288;28;19960;-50
2023/05/29 01:41:16;;;;;;;;;;;;;;;26.84;34.71;96242.84;4994099;28;19953;-49
2023/05/29 01:43:44;;;;;;;;;;;;;;;26.86;34.80;96239.88;4990877;28;19976;-53
2023/05/29 01:46:14;;;;;;;;;;;;;;;26.94;34.96;96239.41;4987083;28;20372;-47
2023/05/29 01:48:42;;;;;;;;;;;;;;;27.11;34.97;96239.31;4995217;28;19956;-54
2023/05/29 01:51:11;;;;;;;;;;;;;;;27.04;34.87;96241.41;4989362;28;20049;-50
2023/05/29 01:53:39;;;;;;;;;;;;;;;27.15;35.04;96241.31;4995483;28;19961;-49
2023/05/29 01:56:07;;;;;;;;;;;;;;;27.14;35.06;96246.97;4992816;28;20456;-52
2023/05/29 01:58:35;;;;;;;;;;;;;;;27.11;35.35;96248.25;4991924;28;20424;-48
2023/05/29 02:01:04;;;;;;;;;;;;;;;26.75;35.30;96238.94;4991948;28;20039;-48
2023/05/29 02:03:34;;;;;;;;;;;;;;;27.13;34.88;96239.94;4996097;28;19957;-47
2023/05/29 02:06:02;;;;;;;;;;;;;;;27.15;34.80;96240.47;4993253;28;20401;-49
2023/05/29 02:08:30;;;;;;;;;;;;;;;27.06;35.09;96240.09;4993587;28;19961;-48
2023/05/29 02:10:58;;;;;;;;;;;;;;;27.11;35.00;96240.16;4992254;28;20028;-47
2023/05/29 02:13:26;;;;;;;;;;;;;;;26.96;35.09;96237.28;4998114;28;20346;-46
2023/05/29 02:15:54;;;;;;;;;;;;;;;27.08;35.03;96231.72;4997396;28;19964;-47
2023/05/29 02:18:22;;;;;;;;;;;;;;;26.87;35.29;96228.78;4991859;28;20381;-47
2023/05/29 02:20:52;;;;;;;;;;;;;;;26.80;35.21;96230.88;4987745;28;19995;-49
2023/05/29 02:23:20;;;;;;;;;;;;;;;26.83;35.41;96233.06;4988843;28;20361;-48
2023/05/29 02:25:48;;;;;;;;;;;;;;;26.93;35.06;96235.91;4993397;28;20421;-51
2023/05/29 02:28:16;;;;;;;;;;;;;;;26.73;35.29;96235.66;4989621;28;19961;-55
2023/05/29 02:30:44;;;;;;;;;;;;;;;26.90;34.91;96238.28;4993118;28;19972;-53
2023/05/29 02:33:12;;;;;;;;;;;;;;;26.79;34.87;96234.66;4989908;28;19961;-53
2023/05/29 02:35:40;;;;;;;;;;;;;;;26.65;35.28;96238.81;4995080;28;19963;-51
2023/05/29 02:38:09;;;;;;;;;;;;;;;26.48;35.70;96234.28;4986387;28;20477;-46
2023/05/29 02:40:37;;;;;;;;;;;;;;;26.59;35.49;96237.94;4989279;28;19960;-50
2023/05/29 02:43:06;;;;;;;;;;;;;;;26.74;35.35;96238.13;4994413;28;19921;-46
2023/05/29 02:45:34;;;;;;;;;;;;;;;26.41;36.03;96239.03;4990157;28;19953;-48
2023/05/29 02:48:03;;;;;;;;;;;;;;;26.47;35.36;96237.25;4988583;28;21586;-49
2023/05/29 02:50:31;;;;;;;;;;;;;;;25.47;36.75;96245.16;4992865;28;19965;-49
2023/05/29 02:52:59;;;;;;;;;;;;;;;25.46;37.18;96243.50;4995247;28;20435;-50
2023/05/29 02:55:32;;;;;;;;;;;;;;;25.66;37.05;96243.03;4992865;28;20005;-53
2023/05/29 02:58:01;;;;;;;;;;;;;;;24.57;38.98;96249.38;4998576;28;20326;-50
2023/05/29 03:00:29;;;;;;;;;;;;;;;25.50;37.67;96244.69;5001452;28;19965;-49
2023/05/29 03:02:58;;;;;;;;;;;;;;;25.48;37.35;96238.69;4993560;28;20412;-50
2023/05/29 03:05:26;;;;;;;;;;;;;;;25.82;36.64;96246.03;4997494;28;19964;-47
2023/05/29 03:07:55;;;;;;;;;;;;;;;25.51;37.57;96240.09;4993223;28;19956;-47
2023/05/29 03:10:23;;;;;;;;;;;;;;;25.36;37.59;96237.94;4994685;28;19948;-46
2023/05/29 03:12:52;;;;;;;;;;;;;;;25.12;38.21;96247.22;4992882;28;19964;-48
2023/05/29 03:15:20;;;;;;;;;;;;;;;25.83;37.26;96244.94;5000226;28;19961;-47
2023/05/29 03:17:48;;;;;;;;;;;;;;;25.97;36.65;96241.66;4994754;28;19968;-51
2023/05/29 03:20:17;;;;;;;;;;;;;;;26.02;35.96;96249.84;4992985;28;19960;-55
2023/05/29 03:22:45;;;;;;;;;;;;;;;26.19;35.84;96239.00;4992674;28;19968;-47
2023/05/29 03:25:13;;;;;;;;;;;;;;;26.13;36.03;96237.31;4993058;28;20016;-50
2023/05/29 03:27:41;;;;;;;;;;;;;;;26.10;36.41;96236.97;4991523;28;19972;-46
2023/05/29 03:30:10;;;;;;;;;;;;;;;26.26;36.02;96244.25;4990888;28;20087;-52
2023/05/29 03:32:38;;;;;;;;;;;;;;;26.20;35.61;96242.53;4995732;28;20538;-50
2023/05/29 03:35:07;;;;;;;;;;;;;;;26.18;36.16;96248.16;4994903;28;19960;-49
2023/05/29 03:37:35;;;;;;;;;;;;;;;26.34;35.86;96251.91;4996831;28;19969;-47
2023/05/29 03:40:05;;;;;;;;;;;;;;;26.08;36.03;96255.31;4991279;28;19972;-48
2023/05/29 03:42:33;;;;;;;;;;;;;;;26.20;36.30;96251.47;4994016;28;20052;-51
2023/05/29 03:45:01;;;;;;;;;;;;;;;26.37;36.12;96253.31;4997140;28;19960;-49
2023/05/29 03:47:30;;;;;;;;;;;;;;;26.48;35.68;96253.22;4999411;28;19968;-52
2023/05/29 03:49:58;;;;;;;;;;;;;;;26.25;36.30;96253.41;4992215;28;19981;-46
2023/05/29 03:52:26;;;;;;;;;;;;;;;25.76;36.92;96267.50;4994540;28;19969;-47
2023/05/29 03:54:54;;;;;;;;;;;;;;;25.92;36.56;96262.41;4998044;28;20378;-47
2023/05/29 03:57:22;;;;;;;;;;;;;;;26.26;36.35;96263.97;4993253;28;19956;-48
2023/05/29 03:59:50;;;;;;;;;;;;;;;27.04;35.32;96257.66;4997244;28;19968;-44
2023/05/29 04:02:18;;;;;;;;;;;;;;;28.03;33.69;96264.59;4990691;28;19953;-47
2023/05/29 04:04:48;;;;;;;;;;;;;;;28.49;33.02;96265.69;4993561;28;20084;-47
2023/05/29 04:07:17;;;;;;;;;;;;;;;28.50;32.90;96266.53;4991461;28;19960;-48
2023/05/29 04:09:45;;;;;;;;;;;;;;;29.04;32.20;96263.53;4993391;28;20657;-49
2023/05/29 04:12:13;;;;;;;;;;;;;;;29.47;31.91;96270.44;4992812;28;19968;-50
2023/05/29 04:14:41;;;;;;;;;;;;;;;29.84;31.09;96266.69;4993449;28;19956;-53
2023/05/29 04:17:09;;;;;;;;;;;;;;;30.14;31.19;96273.97;4993568;28;19965;-50
2023/05/29 04:19:38;;;;;;;;;;;;;;;30.34;30.93;96272.38;4993981;28;20492;-49
2023/05/29 04:22:07;;;;;;;;;;;;;;;30.69;30.68;96268.72;4993699;28;20108;-47
2023/05/29 04:24:35;;;;;;;;;;;;;;;30.46;31.14;96276.44;5001173;28;19964;-47
2023/05/29 04:27:04;;;;;;;;;;;;;;;30.59;30.66;96279.63;4992914;28;19956;-50
2023/05/29 04:29:34;;;;;;;;;;;;;;;30.60;30.67;96281.28;4993176;28;19921;-53
2023/05/29 04:32:03;;;;;;;;;;;;;;;30.90;30.82;96280.38;4997693;28;19979;-54
2023/05/29 04:34:31;;;;;;;;;;;;;;;31.98;29.16;96278.69;4991427;28;19976;-52
2023/05/29 04:36:59;;;;;;;;;;;;;;;32.36;28.84;96287.88;4991435;28;19953;-51
2023/05/29 04:39:29;;;;;;;;;;;;;;;33.01;27.89;96283.94;4996730;28;19964;-48
2023/05/29 04:41:58;;;;;;;;;;;;;;;33.47;27.04;96286.06;4998380;28;20052;-54
2023/05/29 04:44:26;;;;;;;;;;;;;;;33.70;26.78;96287.13;4997527;28;19960;-51
2023/05/29 04:46:54;;;;;;;;;;;;;;;33.76;26.94;96288.66;5003477;28;19971;-55
2023/05/29 04:49:23;;;;;;;;;;;;;;;33.94;26.70;96287.81;5002841;28;19961;-44
2023/05/29 04:51:52;;;;;;;;;;;;;;;34.13;26.43;96278.78;5001196;28;19971;-48
2023/05/29 04:54:20;;;;;;;;;;;;;;;34.53;26.74;96281.94;5006344;28;19960;-51
2023/05/29 04:56:50;;;;;;;;;;;;;;;34.81;26.47;96286.31;4998816;28;19994;-51
2023/05/29 04:59:17;;;;;;;;;;;;;;;34.94;26.22;96284.69;5008014;28;19983;-51
2023/05/29 05:01:47;;;;;;;;;;;;;;;35.31;25.57;96282.84;4978421;28;19995;-50
2023/05/29 05:04:15;;;;;;;;;;;;;;;34.94;26.36;96290.97;4993638;28;20372;-49
2023/05/29 05:06:43;;;;;;;;;;;;;;;35.40;25.66;96286.47;4996818;28;19964;-45
2023/05/29 05:09:12;;;;;;;;;;;;;;;35.58;25.57;96285.56;4996011;28;19975;-48
2023/05/29 05:11:40;;;;;;;;;;;;;;;35.64;25.75;96292.53;4988894;28;20362;-50
2023/05/29 05:14:09;;;;;;;;;;;;;;;35.54;26.09;96284.53;4997170;28;19957;-50
2023/05/29 05:16:37;;;;;;;;;;;;;;;35.27;26.69;96290.03;4992186;28;19957;-47
2023/05/29 05:19:05;;;;;;;;;;;;;;;35.16;27.25;96292.19;5000742;28;19975;-48
2023/05/29 05:21:33;;;;;;;;;;;;;;;35.56;26.45;96295.22;4994912;28;19953;-49
2023/05/29 05:24:01;;;;;;;;;;;;;;;35.72;26.49;96295.66;5000989;28;19960;-47
2023/05/29 05:26:30;;;;;;;;;;;;;;;35.62;26.53;96294.78;5002387;28;19976;-50
2023/05/29 05:28:58;;;;;;;;;;;;;;;35.98;26.17;96302.16;4995710;28;21396;-46
2023/05/29 05:31:27;;;;;;;;;;;;;;;35.60;27.01;96308.00;4997114;28;19969;-47
2023/05/29 05:33:55;;;;;;;;;;;;;;;36.23;26.96;96308.16;4992061;28;19968;-49
2023/05/29 05:36:23;;;;;;;;;;;;;;;36.27;26.33;96310.00;5000625;28;20629;-48
2023/05/29 05:38:51;;;;;;;;;;;;;;;35.89;26.00;96306.75;4995211;28;19976;-48
2023/05/29 05:41:20;;;;;;;;;;;;;;;35.16;25.93;96320.41;4992627;28;20370;-48
2023/05/29 05:43:49;;;;;;;;;;;;;;;34.31;26.06;96323.63;4995378;28;20051;-55
2023/05/29 05:46:17;;;;;;;;;;;;;;;32.87;27.55;96323.97;4993916;28;19984;-48
2023/05/29 05:48:47;;;;;;;;;;;;;;;33.41;26.93;96323.56;4995338;28;19957;-51
2023/05/29 05:51:15;;;;;;;;;;;;;;;32.65;27.62;96321.75;4995725;28;19964;-52
2023/05/29 05:53:43;;;;;;;;;;;;;;;31.61;28.66;96325.56;4995767;28;19968;-47
2023/05/29 05:56:11;;;;;;;;;;;;;;;32.07;28.44;96326.09;4998147;28;19972;-48
2023/05/29 05:58:39;;;;;;;;;;;;;;;32.20;28.21;96330.03;4995441;28;19985;-52
2023/05/29 06:01:08;;;;;;;;;;;;;;;31.60;28.79;96324.75;4999901;28;19979;-48
2023/05/29 06:03:37;;;;;;;;;;;;;;;31.52;29.00;96327.25;5003615;28;20408;-52
2023/05/29 06:06:08;;;;;;;;;;;;;;;31.91;28.90;96330.03;4997331;28;20409;-51
2023/05/29 06:08:37;;;;;;;;;;;;;;;31.62;29.05;96333.44;4996098;28;19972;-51
2023/05/29 06:11:05;;;;;;;;;;;;;;;31.17;29.66;96332.56;5000291;28;19960;-52
2023/05/29 06:13:33;;;;;;;;;;;;;;;30.72;30.42;96330.78;4992938;28;19964;-48
2023/05/29 06:16:02;;;;;;;;;;;;;;;31.67;29.80;96335.34;4991600;28;20156;-47
2023/05/29 06:18:30;;;;;;;;;;;;;;;32.45;28.54;96330.94;4999472;28;19957;-49
2023/05/29 06:20:58;;;;;;;;;;;;;;;30.97;30.51;96338.09;5003259;28;19975;-47
2023/05/29 06:23:28;;;;;;;;;;;;;;;31.90;29.36;96334.66;4996455;28;19975;-54
2023/05/29 06:25:56;;;;;;;;;;;;;;;30.67;30.20;96338.97;4998822;28;19956;-49
2023/05/29 06:28:24;;;;;;;;;;;;;;;33.01;28.17;96336.66;4999637;28;19976;-53
2023/05/29 06:30:53;;;;;;;;;;;;;;;32.29;28.57;96343.91;4984161;28;19997;-48
2023/05/29 06:33:21;;;;;;;;;;;;;;;32.04;28.93;96342.22;4996254;28;19953;-53
2023/05/29 06:35:50;;;;;;;;;;;;;;;31.35;29.92;96342.06;4996544;28;19968;-53
2023/05/29 06:38:18;;;;;;;;;;;;;;;31.55;30.23;96340.31;5000339;28;19956;-51
2023/05/29 06:40:47;;;;;;;;;;;;;;;32.14;29.15;96344.81;5005029;28;19969;-52
2023/05/29 06:43:15;;;;;;;;;;;;;;;32.52;29.34;96354.09;4996835;28;19972;-47
2023/05/29 06:45:43;;;;;;;;;;;;;;;31.34;30.42;96359.50;4995536;28;19961;-50
2023/05/29 06:48:11;;;;;;;;;;;;;;;31.71;29.71;96360.94;5002956;28;19971;-49
2023/05/29 06:50:39;;;;;;;;;;;;;;;33.31;29.32;96360.09;4991282;28;20524;-47
2023/05/29 06:53:07;;;;;;;;;;;;;;;33.16;28.73;96357.53;4994668;28;19957;-51
2023/05/29 06:55:35;;;;;;;;;;;;;;;34.03;27.82;96356.38;4995068;28;20042;-49
2023/05/29 06:58:05;;;;;;;;;;;;;;;32.26;29.51;96360.84;4997724;28;19956;-47
2023/05/29 07:00:33;;;;;;;;;;;;;;;30.85;30.94;96362.91;4997596;28;19972;-51
2023/05/29 07:03:01;;;;;;;;;;;;;;;32.41;29.43;96365.34;4996514;28;19972;-51
2023/05/29 07:05:29;;;;;;;;;;;;;;;32.38;30.19;96364.00;4991519;28;20057;-49
2023/05/29 07:07:57;;;;;;;;;;;;;;;32.14;30.18;96370.22;4991787;28;20432;-47
2023/05/29 07:10:25;;;;;;;;;;;;;;;32.64;29.44;96377.47;4991138;28;19991;-47
2023/05/29 07:12:53;;;;;;;;;;;;;;;32.59;29.68;96373.69;4993024;28;19952;-47
2023/05/29 07:15:23;;;;;;;;;;;;;;;33.21;29.38;96373.03;5001744;28;20369;-47
2023/05/29 07:17:51;;;;;;;;;;;;;;;33.32;29.11;96371.84;4996786;28;19964;-48
2023/05/29 07:20:20;;;;;;;;;;;;;;;33.08;29.22;96372.66;4996030;28;20622;-48
2023/05/29 07:22:48;;;;;;;;;;;;;;;33.92;28.55;96365.84;5002238;28;19957;-48
2023/05/29 07:25:16;;;;;;;;;;;;;;;34.22;28.49;96368.13;4997306;28;19976;-50
2023/05/29 07:27:44;;;;;;;;;;;;;;;33.33;29.52;96382.47;5000870;28;20037;-47
2023/05/29 07:30:13;;;;;;;;;;;;;;;33.24;29.47;96377.91;4995135;28;19979;-46
2023/05/29 07:32:42;;;;;;;;;;;;;;;33.48;28.58;96380.66;4995733;28;19971;-49
2023/05/29 07:35:10;;;;;;;;;;;;;;;35.11;27.58;96375.38;5007267;28;20088;-48
2023/05/29 07:37:38;;;;;;;;;;;;;;;33.93;28.90;96373.75;5004619;28;19968;-47
2023/05/29 07:40:07;;;;;;;;;;;;;;;34.08;29.09;96377.41;4993651;28;19968;-47
2023/05/29 07:42:35;;;;;;;;;;;;;;;34.77;28.52;96375.72;4993056;28;20989;-49
2023/05/29 07:45:03;;;;;;;;;;;;;;;34.79;27.65;96370.75;4992047;28;20020;-48
2023/05/29 07:47:31;;;;;;;;;;;;;;;34.30;28.75;96376.78;4991063;28;19979;-47
2023/05/29 07:50:01;;;;;;;;;;;;;;;34.35;28.79;96373.97;4991147;28;19953;-54
2023/05/29 07:52:29;;;;;;;;;;;;;;;34.18;29.10;96377.25;4990547;28;19964;-51
2023/05/29 07:54:57;;;;;;;;;;;;;;;33.99;29.31;96379.94;4996466;28;19964;-47
2023/05/29 07:57:25;;;;;;;;;;;;;;;34.12;29.20;96381.16;5002853;28;19965;-47
2023/05/29 07:59:53;;;;;;;;;;;;;;;34.93;28.22;96381.72;4993236;28;20401;-53
2023/05/29 08:02:22;;;;;;;;;;;;;;;34.40;28.68;96379.34;4988937;28;19961;-45
2023/05/29 08:04:50;;;;;;;;;;;;;;;35.43;27.96;96373.63;4990772;28;19987;-50
2023/05/29 08:07:20;;;;;;;;;;;;;;;34.56;28.62;96377.19;4991237;28;19968;-50
2023/05/29 08:09:48;;;;;;;;;;;;;;;35.49;28.19;96369.66;4990952;28;20012;-49
2023/05/29 08:12:16;;;;;;;;;;;;;;;34.17;29.53;96370.13;4991077;28;19971;-57
2023/05/29 08:14:44;;;;;;;;;;;;;;;35.19;28.07;96366.41;4991683;28;20405;-49
2023/05/29 08:17:12;;;;;;;;;;;;;;;35.32;28.12;96370.28;4990711;28;19961;-48
2023/05/29 08:19:40;;;;;;;;;;;;;;;35.25;28.37;96371.81;4991365;28;19975;-48
2023/05/29 08:22:08;;;;;;;;;;;;;;;35.23;27.99;96376.78;4989702;28;19979;-47
2023/05/29 08:24:38;;;;;;;;;;;;;;;36.22;26.90;96367.78;4995304;28;19976;-46
2023/05/29 08:27:06;;;;;;;;;;;;;;;34.40;28.55;96376.59;4990300;28;20004;-48
2023/05/29 08:29:35;;;;;;;;;;;;;;;34.80;27.61;96372.38;4993542;28;19964;-48
2023/05/29 08:32:04;;;;;;;;;;;;;;;35.47;27.65;96360.91;5000103;28;20484;-51
2023/05/29 08:34:32;;;;;;;;;;;;;;;33.72;28.36;96375.16;4998122;28;19965;-49
2023/05/29 08:37:00;;;;;;;;;;;;;;;33.75;28.13;96369.91;4992230;28;19973;-52
2023/05/29 08:39:28;;;;;;;;;;;;;;;33.88;28.52;96373.81;4991390;28;19964;-51
2023/05/29 08:41:59;;;;;;;;;;;;;;;34.92;27.32;96371.88;4999489;28;20401;-49
2023/05/29 08:44:28;;;;;;;;;;;;;;;34.99;27.06;96372.28;4994850;28;20366;-48
2023/05/29 08:46:57;;;;;;;;;;;;;;;34.90;27.54;96369.44;4998241;28;19996;-49
2023/05/29 08:49:25;;;;;;;;;;;;;;;35.00;26.03;96368.44;4992304;28;19961;-47
2023/05/29 08:51:55;;;;;;;;;;;;;;;35.47;26.08;96369.13;5002280;28;19956;-48
2023/05/29 08:54:23;;;;;;;;;;;;;;;35.70;26.62;96370.06;4992262;28;19972;-47
2023/05/29 08:56:51;;;;;;;;;;;;;;;36.17;26.27;96367.06;5003283;28;19961;-48
2023/05/29 08:59:20;;;;;;;;;;;;;;;36.10;26.00;96368.34;4995411;28;19961;-55
2023/05/29 09:01:48;;;;;;;;;;;;;;;37.10;26.24;96366.38;4996531;28;20072;-48
2023/05/29 09:04:16;;;;;;;;;;;;;;;36.22;26.87;96372.47;4991302;28;19964;-47
2023/05/29 09:06:46;;;;;;;;;;;;;;;37.20;25.79;96366.91;4999067;28;19960;-53
2023/05/29 09:09:14;;;;;;;;;;;;;;;36.83;27.37;96370.94;5001353;28;20354;-49
2023/05/29 09:11:42;;;;;;;;;;;;;;;36.12;26.41;96371.56;4992111;28;20405;-48
2023/05/29 09:14:12;;;;;;;;;;;;;;;35.82;26.39;96380.47;4997641;28;19973;-48
2023/05/29 09:16:43;;;;;;;;;;;;;;;34.95;26.67;96372.06;4996680;28;23256;-46
2023/05/29 09:19:11;;;;;;;;;;;;;;;35.61;25.85;96374.63;4998183;28;20270;-54
2023/05/29 09:21:40;;;;;;;;;;;;;;;36.04;25.73;96374.25;4999802;28;19968;-52
2023/05/29 09:24:08;;;;;;;;;;;;;;;36.24;25.64;96373.78;4999143;28;20674;-51
2023/05/29 09:26:36;;;;;;;;;;;;;;;37.26;24.55;96370.31;4993704;28;19949;-51
2023/05/29 09:29:05;;;;;;;;;;;;;;;35.18;25.20;96375.78;4998419;28;19964;-52
2023/05/29 09:31:33;;;;;;;;;;;;;;;35.13;25.62;96380.53;4995939;28;19964;-47
2023/05/29 09:34:04;;;;;;;;;;;;;;;36.22;25.21;96376.00;5000671;28;19976;-49
2023/05/29 09:36:32;;;;;;;;;;;;;;;35.54;25.93;96368.75;5005820;28;19964;-51
2023/05/29 09:39:03;;;;;;;;;;;;;;;35.26;26.10;96376.16;5002935;28;19968;-51
2023/05/29 09:41:32;;;;;;;;;;;;;;;36.71;24.27;96370.69;4996972;28;19953;-47
2023/05/29 09:44:01;;;;;;;;;;;;;;;36.36;24.38;96371.25;5002085;28;19971;-47
2023/05/29 09:46:29;;;;;;;;;;;;;;;38.17;23.06;96365.97;4997378;28;19968;-48
2023/05/29 09:48:58;;;;;;;;;;;;;;;37.94;23.88;96377.13;4992036;28;19992;-48
2023/05/29 09:51:28;;;;;;;;;;;;;;;37.08;24.28;96369.44;4995107;28;19952;-51
2023/05/29 09:54:00;;;;;;;;;;;;;;;37.50;23.75;96373.47;5002063;28;19964;-46
2023/05/29 09:56:29;;;;;;;;;;;;;;;37.02;23.68;96379.75;4995619;28;19969;-54
2023/05/29 09:58:57;;;;;;;;;;;;;;;36.94;23.98;96376.97;4998568;28;19952;-51
2023/05/29 10:01:25;;;;;;;;;;;;;;;35.53;25.06;96372.63;4991141;28;19984;-51
2023/05/29 10:03:53;;;;;;;;;;;;;;;36.59;24.11;96376.78;4993856;28;19961;-49
2023/05/29 10:06:22;;;;;;;;;;;;;;;36.73;23.60;96376.69;5000171;28;19976;-47
2023/05/29 10:08:53;;;;;;;;;;;;;;;36.19;23.77;96373.06;4996146;28;20369;-48
2023/05/29 10:11:24;;;;;;;;;;;;;;;37.58;23.22;96374.66;4994655;28;19968;-51
2023/05/29 10:13:53;;;;;;;;;;;;;;;35.93;24.48;96378.31;4994878;28;19968;-47
2023/05/29 10:16:22;;;;;;;;;;;;;;;37.08;23.29;96377.69;4999032;28;20365;-52
2023/05/29 10:18:51;;;;;;;;;;;;;;;38.06;21.38;96370.16;5003829;28;20350;-48
2023/05/29 10:21:19;;;;;;;;;;;;;;;38.60;22.29;96370.63;5002429;28;19961;-47
2023/05/29 10:23:48;;;;;;;;;;;;;;;37.56;22.81;96376.91;4996664;28;19968;-49
2023/05/29 10:26:21;;;;;;;;;;;;;;;37.04;23.37;96377.53;4998619;28;19968;-48
2023/05/29 10:28:51;;;;;;;;;;;;;;;37.75;22.97;96377.44;4997448;28;20642;-51
2023/05/29 10:31:20;;;;;;;;;;;;;;;38.31;22.86;96366.59;4992974;28;20153;-51
2023/05/29 10:33:55;;;;;;;;;;;;;;;37.22;22.99;96369.34;4994973;28;19971;-51
2023/05/29 10:36:24;;;;;;;;;;;;;;;38.10;23.07;96358.19;5001853;28;19967;-52
2023/05/29 10:38:52;;;;;;;;;;;;;;;35.75;24.89;96364.44;4996775;28;20054;-48
2023/05/29 10:41:31;;;;;;;;;;;;;;;35.37;24.57;96361.13;4995850;28;20516;-48
2023/05/29 10:43:59;;;;;;;;;;;;;;;36.00;24.47;96362.25;4998306;28;19957;-49
2023/05/29 10:46:47;;;;;;;;;;;;;;;38.51;22.56;96356.03;4994033;28;20468;-45
2023/05/29 10:49:16;;;;;;;;;;;;;;;37.69;23.36;96364.94;4991384;28;20358;-51
2023/05/29 10:51:44;;;;;;;;;;;;;;;36.67;23.28;96375.19;4994182;28;20106;-47
2023/05/29 10:54:13;;;;;;;;;;;;;;;38.53;22.09;96356.53;4992212;28;19979;-48
2023/05/29 10:56:43;;;;;;;;;;;;;;;37.76;22.84;96357.03;4993304;28;19949;-46
2023/05/29 10:59:11;;;;;;;;;;;;;;;37.39;23.44;96361.13;4993626;28;19972;-52
2023/05/29 11:01:39;;;;;;;;;;;;;;;36.63;24.44;96357.72;4998735;28;20429;-52
2023/05/29 11:04:26;;;;;;;;;;;;;;;39.34;21.41;96358.41;4996671;28;19964;-49
2023/05/29 11:06:55;;;;;;;;;;;;;;;38.26;22.91;96355.72;4996948;28;19975;-50
2023/05/29 11:09:29;;;;;;;;;;;;;;;36.49;23.57;96372.34;4990308;28;19969;-46
2023/05/29 11:12:23;;;;;;;;;;;;;;;37.32;22.84;96360.78;4996032;28;19972;-48
2023/05/29 11:14:54;;;;;;;;;;;;;;;37.66;22.88;96360.09;4992979;28;20474;-46
2023/05/29 11:17:32;;;;;;;;;;;;;;;36.46;23.23;96361.97;5000692;28;20429;-49
2023/05/29 11:20:02;;;;;;;;;;;;;;;36.70;23.91;96358.91;4999026;28;19967;-53
2023/05/29 11:22:33;;;;;;;;;;;;;;;37.23;23.17;96363.50;5009210;28;19952;-51
2023/05/29 11:25:01;;;;;;;;;;;;;;;39.03;22.02;96353.19;4997477;28;20362;-47
2023/05/29 11:27:30;;;;;;;;;;;;;;;37.28;23.26;96359.81;4998821;28;19968;-49
2023/05/29 11:29:58;;;;;;;;;;;;;;;38.72;21.39;96361.69;4990922;28;19965;-51
2023/05/29 11:32:27;;;;;;;;;;;;;;;37.99;22.61;96365.16;4996709;28;19957;-52
2023/05/29 11:34:56;;;;;;;;;;;;;;;37.16;22.53;96367.84;5001926;28;19985;-48
2023/05/29 11:37:24;;;;;;;;;;;;;;;38.61;21.11;96355.69;4995278;28;20350;-53
2023/05/29 11:39:52;;;;;;;;;;;;;;;38.97;21.63;96354.50;4997362;28;20396;-47
2023/05/29 11:42:20;;;;;;;;;;;;;;;37.30;22.99;96358.38;4997468;28;19957;-50
2023/05/29 11:44:49;;;;;;;;;;;;;;;38.20;22.29;96363.38;5007169;28;19960;-49
2023/05/29 11:47:18;;;;;;;;;;;;;;;37.37;22.94;96366.13;5004200;28;19949;-54
2023/05/29 11:49:46;;;;;;;;;;;;;;;38.43;22.43;96352.19;4992253;28;19953;-51
2023/05/29 11:52:16;;;;;;;;;;;;;;;37.97;22.80;96354.47;4993586;28;19956;-52
2023/05/29 11:54:47;;;;;;;;;;;;;;;37.78;21.97;96356.69;4993093;28;19996;-49
2023/05/29 11:57:20;;;;;;;;;;;;;;;38.10;22.29;96352.69;4998317;28;19964;-50
2023/05/29 11:59:51;;;;;;;;;;;;;;;37.56;22.20;96356.81;4993885;28;19968;-50
2023/05/29 12:02:19;;;;;;;;;;;;;;;38.46;21.00;96362.56;4994351;28;20616;-50
2023/05/29 12:05:00;;;;;;;;;;;;;;;37.97;22.36;96346.19;4994335;28;20322;-51
2023/05/29 12:07:28;;;;;;;;;;;;;;;37.23;22.64;96359.94;5004948;28;19953;-49
2023/05/29 12:09:57;;;;;;;;;;;;;;;37.78;22.49;96368.50;4997981;28;19956;-53
2023/05/29 12:12:27;;;;;;;;;;;;;;;37.96;22.23;96357.56;5004889;28;19964;-48
2023/05/29 12:14:56;;;;;;;;;;;;;;;38.18;22.54;96351.84;4998016;28;19956;-48
2023/05/29 12:17:27;;;;;;;;;;;;;;;37.59;22.37;96361.69;5002784;28;19975;-49
2023/05/29 12:19:55;;;;;;;;;;;;;;;40.33;21.10;96339.34;4998165;28;19957;-54
2023/05/29 12:22:31;;;;;;;;;;;;;;;39.27;21.55;96352.59;5007669;28;19956;-50
2023/05/29 12:25:04;;;;;;;;;;;;;;;37.93;21.91;96347.19;4995500;28;19969;-53
2023/05/29 12:27:37;;;;;;;;;;;;;;;37.86;21.66;96349.59;4997023;28;19952;-48
2023/05/29 12:30:08;;;;;;;;;;;;;;;39.40;20.92;96343.25;4992038;28;19965;-47
2023/05/29 12:32:38;;;;;;;;;;;;;;;38.89;20.87;96347.88;5008264;28;19965;-47
2023/05/29 12:35:17;;;;;;;;;;;;;;;39.19;20.92;96340.41;5000282;28;19964;-47
2023/05/29 12:37:45;;;;;;;;;;;;;;;39.24;20.92;96340.25;4996622;28;19953;-49
2023/05/29 12:40:19;;;;;;;;;;;;;;;38.60;22.83;96346.63;4990739;28;20363;-48
2023/05/29 12:42:48;;;;;;;;;;;;;;;38.00;21.33;96350.25;4992137;28;19964;-48
2023/05/29 12:45:19;;;;;;;;;;;;;;;37.50;22.01;96362.47;4998231;28;19972;-50
2023/05/29 12:47:50;;;;;;;;;;;;;;;39.15;21.23;96348.56;5002712;28;19969;-47
2023/05/29 12:50:22;;;;;;;;;;;;;;;38.78;20.61;96344.63;4993007;28;20496;-47
2023/05/29 12:53:00;;;;;;;;;;;;;;;39.40;21.76;96341.31;4999807;28;19953;-49
2023/05/29 12:55:28;;;;;;;;;;;;;;;39.71;21.55;96342.09;5004753;28;20401;-47
2023/05/29 12:57:57;;;;;;;;;;;;;;;38.20;22.31;96344.09;5001639;28;20397;-46